sensor_id;sensor_type;location;lat;lon;timestamp;P1;durP1;ratioP1;P2;durP2;ratioP2
85523;SDS011;75932;48.616;9.270;2024-01-27T00:01:43;12.57;;;11.35;;
85523;SDS011;75932;48.616;9.270;2024-01-27T00:04:11;10.30;;;9.05;;
85523;SDS011;75932;48.616;9.270;2024-01-27T00:06:36;15.98;;;14.45;;
85523;SDS011;75932;48.616;9.270;2024-01-27T00:09:02;10.93;;;9.95;;
85523;SDS011;75932;48.616;9.270;2024-01-27T00:11:27;14.57;;;13.45;;
85523;SDS011;75932;48.616;9.270;2024-01-27T00:13:53;11.93;;;10.75;;
85523;SDS011;75932;48.616;9.270;2024-01-27T00:16:18;10.38;;;9.38;;
85523;SDS011;75932;48.616;9.270;2024-01-27T00:18:43;7.77;;;7.07;;
85523;SDS011;75932;48.616;9.270;2024-01-27T00:21:09;11.20;;;10.10;;
85523;SDS011;75932;48.616;9.270;2024-01-27T00:23:34;11.07;;;10.07;;
85523;SDS011;75932;48.616;9.270;2024-01-27T00:26:00;12.23;;;11.33;;
85523;SDS011;75932;48.616;9.270;2024-01-27T00:28:26;8.43;;;7.60;;
85523;SDS011;75932;48.616;9.270;2024-01-27T00:30:51;14.80;;;13.37;;
85523;SDS011;75932;48.616;9.270;2024-01-27T00:33:16;10.90;;;9.57;;
85523;SDS011;75932;48.616;9.270;2024-01-27T00:35:42;9.60;;;8.77;;
85523;SDS011;75932;48.616;9.270;2024-01-27T00:38:07;9.82;;;8.82;;
85523;SDS011;75932;48.616;9.270;2024-01-27T00:40:32;10.68;;;9.80;;
85523;SDS011;75932;48.616;9.270;2024-01-27T00:42:58;22.53;;;13.00;;
85523;SDS011;75932;48.616;9.270;2024-01-27T00:45:23;95.85;;;50.10;;
85523;SDS011;75932;48.616;9.270;2024-01-27T00:47:49;120.03;;;55.37;;
85523;SDS011;75932;48.616;9.270;2024-01-27T00:50:15;64.03;;;31.95;;
85523;SDS011;75932;48.616;9.270;2024-01-27T00:52:41;62.42;;;31.98;;
85523;SDS011;75932;48.616;9.270;2024-01-27T00:55:07;36.22;;;22.23;;
85523;SDS011;75932;48.616;9.270;2024-01-27T00:57:33;22.13;;;14.65;;
85523;SDS011;75932;48.616;9.270;2024-01-27T00:59:58;15.83;;;13.03;;
85523;SDS011;75932;48.616;9.270;2024-01-27T01:02:23;10.43;;;9.67;;
85523;SDS011;75932;48.616;9.270;2024-01-27T01:04:49;10.50;;;8.93;;
85523;SDS011;75932;48.616;9.270;2024-01-27T01:07:14;10.52;;;9.00;;
85523;SDS011;75932;48.616;9.270;2024-01-27T01:09:39;13.00;;;12.00;;
85523;SDS011;75932;48.616;9.270;2024-01-27T01:12:05;13.40;;;11.27;;
85523;SDS011;75932;48.616;9.270;2024-01-27T01:14:33;18.05;;;15.80;;
85523;SDS011;75932;48.616;9.270;2024-01-27T01:16:58;17.30;;;14.93;;
85523;SDS011;75932;48.616;9.270;2024-01-27T01:19:23;17.13;;;14.60;;
85523;SDS011;75932;48.616;9.270;2024-01-27T01:21:49;12.07;;;10.87;;
85523;SDS011;75932;48.616;9.270;2024-01-27T01:24:14;9.77;;;8.87;;
85523;SDS011;75932;48.616;9.270;2024-01-27T01:26:39;12.05;;;11.13;;
85523;SDS011;75932;48.616;9.270;2024-01-27T01:29:05;14.90;;;9.53;;
85523;SDS011;75932;48.616;9.270;2024-01-27T01:31:30;10.90;;;10.20;;
85523;SDS011;75932;48.616;9.270;2024-01-27T01:33:55;14.23;;;13.23;;
85523;SDS011;75932;48.616;9.270;2024-01-27T01:36:20;11.17;;;10.33;;
85523;SDS011;75932;48.616;9.270;2024-01-27T01:38:46;6.67;;;6.17;;
85523;SDS011;75932;48.616;9.270;2024-01-27T01:41:11;11.15;;;10.10;;
85523;SDS011;75932;48.616;9.270;2024-01-27T01:43:36;10.17;;;9.37;;
85523;SDS011;75932;48.616;9.270;2024-01-27T01:46:02;9.07;;;8.23;;
85523;SDS011;75932;48.616;9.270;2024-01-27T01:48:28;10.52;;;9.80;;
85523;SDS011;75932;48.616;9.270;2024-01-27T01:50:54;9.73;;;9.00;;
85523;SDS011;75932;48.616;9.270;2024-01-27T01:53:20;9.18;;;8.25;;
85523;SDS011;75932;48.616;9.270;2024-01-27T01:55:46;10.52;;;9.73;;
85523;SDS011;75932;48.616;9.270;2024-01-27T01:58:15;13.00;;;11.90;;
85523;SDS011;75932;48.616;9.270;2024-01-27T02:00:40;12.77;;;11.90;;
85523;SDS011;75932;48.616;9.270;2024-01-27T02:03:09;7.22;;;6.53;;
85523;SDS011;75932;48.616;9.270;2024-01-27T02:05:35;10.27;;;9.52;;
85523;SDS011;75932;48.616;9.270;2024-01-27T02:08:00;14.97;;;13.70;;
85523;SDS011;75932;48.616;9.270;2024-01-27T02:10:29;12.25;;;11.23;;
85523;SDS011;75932;48.616;9.270;2024-01-27T02:13:01;10.77;;;9.88;;
85523;SDS011;75932;48.616;9.270;2024-01-27T02:15:26;11.93;;;10.73;;
85523;SDS011;75932;48.616;9.270;2024-01-27T02:17:54;7.20;;;6.35;;
85523;SDS011;75932;48.616;9.270;2024-01-27T02:20:19;11.73;;;11.00;;
85523;SDS011;75932;48.616;9.270;2024-01-27T02:22:44;10.53;;;9.77;;
85523;SDS011;75932;48.616;9.270;2024-01-27T02:25:09;11.10;;;10.00;;
85523;SDS011;75932;48.616;9.270;2024-01-27T02:27:35;11.43;;;9.20;;
85523;SDS011;75932;48.616;9.270;2024-01-27T02:30:00;9.43;;;8.60;;
85523;SDS011;75932;48.616;9.270;2024-01-27T02:32:26;8.10;;;7.30;;
85523;SDS011;75932;48.616;9.270;2024-01-27T02:34:51;14.02;;;12.75;;
85523;SDS011;75932;48.616;9.270;2024-01-27T02:37:17;10.33;;;9.37;;
85523;SDS011;75932;48.616;9.270;2024-01-27T02:39:46;9.82;;;8.95;;
85523;SDS011;75932;48.616;9.270;2024-01-27T02:42:11;10.87;;;9.47;;
85523;SDS011;75932;48.616;9.270;2024-01-27T02:44:36;15.83;;;14.57;;
85523;SDS011;75932;48.616;9.270;2024-01-27T02:47:02;12.33;;;11.33;;
85523;SDS011;75932;48.616;9.270;2024-01-27T02:49:27;9.27;;;6.65;;
85523;SDS011;75932;48.616;9.270;2024-01-27T02:51:52;16.77;;;15.23;;
85523;SDS011;75932;48.616;9.270;2024-01-27T02:54:18;10.60;;;9.70;;
85523;SDS011;75932;48.616;9.270;2024-01-27T02:56:43;13.23;;;12.17;;
85523;SDS011;75932;48.616;9.270;2024-01-27T02:59:08;7.20;;;6.50;;
85523;SDS011;75932;48.616;9.270;2024-01-27T03:01:33;11.30;;;10.50;;
85523;SDS011;75932;48.616;9.270;2024-01-27T03:03:59;10.47;;;9.60;;
85523;SDS011;75932;48.616;9.270;2024-01-27T03:06:24;9.37;;;8.67;;
85523;SDS011;75932;48.616;9.270;2024-01-27T03:08:49;8.03;;;6.63;;
85523;SDS011;75932;48.616;9.270;2024-01-27T03:11:15;7.00;;;6.23;;
85523;SDS011;75932;48.616;9.270;2024-01-27T03:13:40;11.83;;;10.90;;
85523;SDS011;75932;48.616;9.270;2024-01-27T03:16:10;9.65;;;8.95;;
85523;SDS011;75932;48.616;9.270;2024-01-27T03:18:37;10.50;;;9.70;;
85523;SDS011;75932;48.616;9.270;2024-01-27T03:21:03;11.43;;;10.63;;
85523;SDS011;75932;48.616;9.270;2024-01-27T03:23:30;10.18;;;9.45;;
85523;SDS011;75932;48.616;9.270;2024-01-27T03:25:56;10.73;;;9.77;;
85523;SDS011;75932;48.616;9.270;2024-01-27T03:28:21;11.47;;;10.57;;
85523;SDS011;75932;48.616;9.270;2024-01-27T03:30:46;9.13;;;8.30;;
85523;SDS011;75932;48.616;9.270;2024-01-27T03:33:11;12.20;;;10.97;;
85523;SDS011;75932;48.616;9.270;2024-01-27T03:35:37;10.43;;;9.65;;
85523;SDS011;75932;48.616;9.270;2024-01-27T03:38:05;10.40;;;9.50;;
85523;SDS011;75932;48.616;9.270;2024-01-27T03:40:30;11.90;;;11.07;;
85523;SDS011;75932;48.616;9.270;2024-01-27T03:42:56;10.87;;;10.00;;
85523;SDS011;75932;48.616;9.270;2024-01-27T03:45:21;14.47;;;12.93;;
85523;SDS011;75932;48.616;9.270;2024-01-27T03:47:46;12.17;;;11.13;;
85523;SDS011;75932;48.616;9.270;2024-01-27T03:50:11;9.40;;;8.63;;
85523;SDS011;75932;48.616;9.270;2024-01-27T03:52:37;9.00;;;8.27;;
85523;SDS011;75932;48.616;9.270;2024-01-27T03:55:03;11.50;;;10.67;;
85523;SDS011;75932;48.616;9.270;2024-01-27T03:57:30;11.82;;;10.93;;
85523;SDS011;75932;48.616;9.270;2024-01-27T03:59:55;10.90;;;10.00;;
85523;SDS011;75932;48.616;9.270;2024-01-27T04:02:21;8.43;;;7.73;;
85523;SDS011;75932;48.616;9.270;2024-01-27T04:04:46;10.37;;;9.57;;
85523;SDS011;75932;48.616;9.270;2024-01-27T04:07:11;9.27;;;8.50;;
85523;SDS011;75932;48.616;9.270;2024-01-27T04:09:36;9.97;;;9.07;;
85523;SDS011;75932;48.616;9.270;2024-01-27T04:12:02;11.87;;;11.03;;
85523;SDS011;75932;48.616;9.270;2024-01-27T04:14:27;10.93;;;9.90;;
85523;SDS011;75932;48.616;9.270;2024-01-27T04:16:52;10.73;;;10.03;;
85523;SDS011;75932;48.616;9.270;2024-01-27T04:19:17;12.10;;;10.97;;
85523;SDS011;75932;48.616;9.270;2024-01-27T04:21:43;10.77;;;9.77;;
85523;SDS011;75932;48.616;9.270;2024-01-27T04:24:08;11.70;;;10.90;;
85523;SDS011;75932;48.616;9.270;2024-01-27T04:26:36;6.80;;;6.18;;
85523;SDS011;75932;48.616;9.270;2024-01-27T04:29:01;10.57;;;9.87;;
85523;SDS011;75932;48.616;9.270;2024-01-27T04:31:26;10.38;;;9.57;;
85523;SDS011;75932;48.616;9.270;2024-01-27T04:33:52;8.60;;;7.87;;
85523;SDS011;75932;48.616;9.270;2024-01-27T04:36:29;11.30;;;10.23;;
85523;SDS011;75932;48.616;9.270;2024-01-27T04:38:54;11.02;;;9.88;;
85523;SDS011;75932;48.616;9.270;2024-01-27T04:41:20;12.52;;;11.70;;
85523;SDS011;75932;48.616;9.270;2024-01-27T04:43:45;11.48;;;10.45;;
85523;SDS011;75932;48.616;9.270;2024-01-27T04:46:11;11.87;;;11.00;;
85523;SDS011;75932;48.616;9.270;2024-01-27T04:48:36;11.03;;;10.17;;
85523;SDS011;75932;48.616;9.270;2024-01-27T04:51:01;7.17;;;6.57;;
85523;SDS011;75932;48.616;9.270;2024-01-27T04:53:26;11.33;;;10.53;;
85523;SDS011;75932;48.616;9.270;2024-01-27T04:55:52;11.20;;;10.27;;
85523;SDS011;75932;48.616;9.270;2024-01-27T04:58:17;11.77;;;10.77;;
85523;SDS011;75932;48.616;9.270;2024-01-27T05:00:42;16.70;;;12.47;;
85523;SDS011;75932;48.616;9.270;2024-01-27T05:03:07;14.60;;;13.03;;
85523;SDS011;75932;48.616;9.270;2024-01-27T05:05:40;16.17;;;14.57;;
85523;SDS011;75932;48.616;9.270;2024-01-27T05:08:06;15.55;;;13.23;;
85523;SDS011;75932;48.616;9.270;2024-01-27T05:10:31;14.70;;;13.38;;
85523;SDS011;75932;48.616;9.270;2024-01-27T05:12:56;12.90;;;11.60;;
85523;SDS011;75932;48.616;9.270;2024-01-27T05:15:22;10.83;;;9.83;;
85523;SDS011;75932;48.616;9.270;2024-01-27T05:17:47;9.00;;;8.33;;
85523;SDS011;75932;48.616;9.270;2024-01-27T05:20:12;12.03;;;10.13;;
85523;SDS011;75932;48.616;9.270;2024-01-27T05:22:38;14.27;;;13.25;;
85523;SDS011;75932;48.616;9.270;2024-01-27T05:25:03;14.68;;;13.45;;
85523;SDS011;75932;48.616;9.270;2024-01-27T05:27:29;16.80;;;15.60;;
85523;SDS011;75932;48.616;9.270;2024-01-27T05:29:57;10.68;;;9.82;;
85523;SDS011;75932;48.616;9.270;2024-01-27T05:32:22;14.38;;;13.18;;
85523;SDS011;75932;48.616;9.270;2024-01-27T05:34:50;8.40;;;7.63;;
85523;SDS011;75932;48.616;9.270;2024-01-27T05:37:15;10.83;;;9.73;;
85523;SDS011;75932;48.616;9.270;2024-01-27T05:39:41;13.23;;;10.10;;
85523;SDS011;75932;48.616;9.270;2024-01-27T05:42:06;11.23;;;10.10;;
85523;SDS011;75932;48.616;9.270;2024-01-27T05:44:31;13.17;;;12.17;;
85523;SDS011;75932;48.616;9.270;2024-01-27T05:46:57;14.07;;;11.33;;
85523;SDS011;75932;48.616;9.270;2024-01-27T05:49:22;11.27;;;10.57;;
85523;SDS011;75932;48.616;9.270;2024-01-27T05:51:47;9.60;;;8.83;;
85523;SDS011;75932;48.616;9.270;2024-01-27T05:54:13;9.75;;;9.02;;
85523;SDS011;75932;48.616;9.270;2024-01-27T05:56:41;12.95;;;11.57;;
85523;SDS011;75932;48.616;9.270;2024-01-27T05:59:07;10.98;;;10.18;;
85523;SDS011;75932;48.616;9.270;2024-01-27T06:01:32;10.03;;;9.33;;
85523;SDS011;75932;48.616;9.270;2024-01-27T06:03:57;11.43;;;10.53;;
85523;SDS011;75932;48.616;9.270;2024-01-27T06:06:23;9.38;;;8.68;;
85523;SDS011;75932;48.616;9.270;2024-01-27T06:08:49;10.88;;;10.07;;
85523;SDS011;75932;48.616;9.270;2024-01-27T06:11:14;10.77;;;10.00;;
85523;SDS011;75932;48.616;9.270;2024-01-27T06:13:47;13.00;;;12.10;;
85523;SDS011;75932;48.616;9.270;2024-01-27T06:16:13;8.35;;;7.55;;
85523;SDS011;75932;48.616;9.270;2024-01-27T06:18:38;11.80;;;10.70;;
85523;SDS011;75932;48.616;9.270;2024-01-27T06:21:05;11.83;;;11.03;;
85523;SDS011;75932;48.616;9.270;2024-01-27T06:23:30;10.02;;;9.23;;
85523;SDS011;75932;48.616;9.270;2024-01-27T06:25:56;10.07;;;9.30;;
85523;SDS011;75932;48.616;9.270;2024-01-27T06:28:21;13.43;;;12.30;;
85523;SDS011;75932;48.616;9.270;2024-01-27T06:30:46;17.03;;;15.63;;
85523;SDS011;75932;48.616;9.270;2024-01-27T06:33:12;15.98;;;13.70;;
85523;SDS011;75932;48.616;9.270;2024-01-27T06:35:37;12.00;;;10.87;;
85523;SDS011;75932;48.616;9.270;2024-01-27T06:38:02;10.33;;;9.23;;
85523;SDS011;75932;48.616;9.270;2024-01-27T06:40:28;11.32;;;10.40;;
85523;SDS011;75932;48.616;9.270;2024-01-27T06:42:53;11.57;;;10.67;;
85523;SDS011;75932;48.616;9.270;2024-01-27T06:45:19;11.50;;;10.65;;
85523;SDS011;75932;48.616;9.270;2024-01-27T06:47:44;12.40;;;11.40;;
85523;SDS011;75932;48.616;9.270;2024-01-27T06:50:09;10.73;;;9.90;;
85523;SDS011;75932;48.616;9.270;2024-01-27T06:52:35;11.50;;;10.60;;
85523;SDS011;75932;48.616;9.270;2024-01-27T06:55:00;11.70;;;10.83;;
85523;SDS011;75932;48.616;9.270;2024-01-27T06:57:26;11.83;;;10.73;;
85523;SDS011;75932;48.616;9.270;2024-01-27T06:59:51;9.80;;;9.03;;
85523;SDS011;75932;48.616;9.270;2024-01-27T07:02:27;9.95;;;9.15;;
85523;SDS011;75932;48.616;9.270;2024-01-27T07:04:53;12.73;;;11.73;;
85523;SDS011;75932;48.616;9.270;2024-01-27T07:07:21;13.95;;;12.75;;
85523;SDS011;75932;48.616;9.270;2024-01-27T07:09:50;12.10;;;8.93;;
85523;SDS011;75932;48.616;9.270;2024-01-27T07:12:15;11.87;;;10.90;;
85523;SDS011;75932;48.616;9.270;2024-01-27T07:14:40;17.20;;;13.70;;
85523;SDS011;75932;48.616;9.270;2024-01-27T07:17:06;15.13;;;9.07;;
85523;SDS011;75932;48.616;9.270;2024-01-27T07:19:33;14.45;;;10.65;;
85523;SDS011;75932;48.616;9.270;2024-01-27T07:21:59;15.23;;;12.37;;
85523;SDS011;75932;48.616;9.270;2024-01-27T07:24:25;16.50;;;14.85;;
85523;SDS011;75932;48.616;9.270;2024-01-27T07:26:51;11.45;;;10.23;;
85523;SDS011;75932;48.616;9.270;2024-01-27T07:29:16;12.73;;;11.53;;
85523;SDS011;75932;48.616;9.270;2024-01-27T07:31:41;13.33;;;12.13;;
85523;SDS011;75932;48.616;9.270;2024-01-27T07:34:07;12.23;;;11.43;;
85523;SDS011;75932;48.616;9.270;2024-01-27T07:36:32;16.00;;;14.40;;
85523;SDS011;75932;48.616;9.270;2024-01-27T07:38:58;11.43;;;10.23;;
85523;SDS011;75932;48.616;9.270;2024-01-27T07:41:24;13.18;;;11.82;;
85523;SDS011;75932;48.616;9.270;2024-01-27T07:43:49;14.77;;;13.55;;
85523;SDS011;75932;48.616;9.270;2024-01-27T07:46:14;14.17;;;12.87;;
85523;SDS011;75932;48.616;9.270;2024-01-27T07:48:40;13.05;;;11.70;;
85523;SDS011;75932;48.616;9.270;2024-01-27T07:51:06;12.35;;;11.30;;
85523;SDS011;75932;48.616;9.270;2024-01-27T07:53:31;17.40;;;15.82;;
85523;SDS011;75932;48.616;9.270;2024-01-27T07:55:56;14.47;;;13.17;;
85523;SDS011;75932;48.616;9.270;2024-01-27T07:58:22;13.07;;;11.93;;
85523;SDS011;75932;48.616;9.270;2024-01-27T08:00:47;12.03;;;10.83;;
85523;SDS011;75932;48.616;9.270;2024-01-27T08:03:12;15.47;;;14.23;;
85523;SDS011;75932;48.616;9.270;2024-01-27T08:05:38;12.47;;;11.43;;
85523;SDS011;75932;48.616;9.270;2024-01-27T08:08:03;10.97;;;8.27;;
85523;SDS011;75932;48.616;9.270;2024-01-27T08:10:29;17.92;;;12.77;;
85523;SDS011;75932;48.616;9.270;2024-01-27T08:12:54;14.57;;;13.33;;
85523;SDS011;75932;48.616;9.270;2024-01-27T08:15:19;14.03;;;10.63;;
85523;SDS011;75932;48.616;9.270;2024-01-27T08:17:45;12.52;;;11.40;;
85523;SDS011;75932;48.616;9.270;2024-01-27T08:20:10;14.52;;;13.18;;
85523;SDS011;75932;48.616;9.270;2024-01-27T08:22:36;21.80;;;12.48;;
85523;SDS011;75932;48.616;9.270;2024-01-27T08:25:01;13.60;;;11.25;;
85523;SDS011;75932;48.616;9.270;2024-01-27T08:27:27;14.07;;;10.10;;
85523;SDS011;75932;48.616;9.270;2024-01-27T08:29:52;17.30;;;14.70;;
85523;SDS011;75932;48.616;9.270;2024-01-27T08:32:18;26.30;;;13.73;;
85523;SDS011;75932;48.616;9.270;2024-01-27T08:34:43;26.70;;;19.60;;
85523;SDS011;75932;48.616;9.270;2024-01-27T08:37:15;17.77;;;16.07;;
85523;SDS011;75932;48.616;9.270;2024-01-27T08:39:43;15.38;;;13.50;;
85523;SDS011;75932;48.616;9.270;2024-01-27T08:42:08;16.23;;;14.57;;
85523;SDS011;75932;48.616;9.270;2024-01-27T08:44:34;11.27;;;10.27;;
85523;SDS011;75932;48.616;9.270;2024-01-27T08:46:59;13.93;;;12.60;;
85523;SDS011;75932;48.616;9.270;2024-01-27T08:49:24;13.07;;;11.93;;
85523;SDS011;75932;48.616;9.270;2024-01-27T08:51:49;7.50;;;6.70;;
85523;SDS011;75932;48.616;9.270;2024-01-27T08:54:15;12.07;;;11.17;;
85523;SDS011;75932;48.616;9.270;2024-01-27T08:56:40;12.48;;;11.48;;
85523;SDS011;75932;48.616;9.270;2024-01-27T08:59:06;12.10;;;11.23;;
85523;SDS011;75932;48.616;9.270;2024-01-27T09:01:33;12.77;;;11.77;;
85523;SDS011;75932;48.616;9.270;2024-01-27T09:03:59;12.67;;;11.57;;
85523;SDS011;75932;48.616;9.270;2024-01-27T09:06:25;10.73;;;9.93;;
85523;SDS011;75932;48.616;9.270;2024-01-27T09:08:50;10.30;;;9.03;;
85523;SDS011;75932;48.616;9.270;2024-01-27T09:11:16;8.50;;;7.20;;
85523;SDS011;75932;48.616;9.270;2024-01-27T09:13:41;13.40;;;12.37;;
85523;SDS011;75932;48.616;9.270;2024-01-27T09:16:07;10.63;;;9.73;;
85523;SDS011;75932;48.616;9.270;2024-01-27T09:18:37;11.80;;;10.98;;
85523;SDS011;75932;48.616;9.270;2024-01-27T09:21:04;12.15;;;11.23;;
85523;SDS011;75932;48.616;9.270;2024-01-27T09:23:30;12.50;;;11.63;;
85523;SDS011;75932;48.616;9.270;2024-01-27T09:25:55;8.10;;;6.30;;
85523;SDS011;75932;48.616;9.270;2024-01-27T09:28:20;12.90;;;11.80;;
85523;SDS011;75932;48.616;9.270;2024-01-27T09:30:45;12.80;;;11.70;;
85523;SDS011;75932;48.616;9.270;2024-01-27T09:33:11;12.57;;;11.37;;
85523;SDS011;75932;48.616;9.270;2024-01-27T09:35:36;15.10;;;13.90;;
85523;SDS011;75932;48.616;9.270;2024-01-27T09:38:02;13.07;;;11.97;;
85523;SDS011;75932;48.616;9.270;2024-01-27T09:40:27;13.07;;;12.02;;
85523;SDS011;75932;48.616;9.270;2024-01-27T09:42:53;13.15;;;12.10;;
85523;SDS011;75932;48.616;9.270;2024-01-27T09:45:23;10.95;;;9.95;;
85523;SDS011;75932;48.616;9.270;2024-01-27T09:47:48;11.77;;;10.67;;
85523;SDS011;75932;48.616;9.270;2024-01-27T09:50:14;11.27;;;10.23;;
85523;SDS011;75932;48.616;9.270;2024-01-27T09:52:42;13.43;;;12.25;;
85523;SDS011;75932;48.616;9.270;2024-01-27T09:55:08;13.45;;;12.32;;
85523;SDS011;75932;48.616;9.270;2024-01-27T09:57:34;12.52;;;11.52;;
85523;SDS011;75932;48.616;9.270;2024-01-27T10:00:03;11.27;;;10.25;;
85523;SDS011;75932;48.616;9.270;2024-01-27T10:02:29;10.40;;;9.38;;
85523;SDS011;75932;48.616;9.270;2024-01-27T10:04:55;11.38;;;10.38;;
85523;SDS011;75932;48.616;9.270;2024-01-27T10:07:20;13.77;;;12.48;;
85523;SDS011;75932;48.616;9.270;2024-01-27T10:09:50;12.30;;;10.45;;
85523;SDS011;75932;48.616;9.270;2024-01-27T10:12:16;11.43;;;10.32;;
85523;SDS011;75932;48.616;9.270;2024-01-27T10:14:42;13.23;;;12.23;;
85523;SDS011;75932;48.616;9.270;2024-01-27T10:17:20;12.60;;;11.38;;
85523;SDS011;75932;48.616;9.270;2024-01-27T10:20:00;15.25;;;14.10;;
85523;SDS011;75932;48.616;9.270;2024-01-27T10:22:27;15.02;;;10.40;;
85523;SDS011;75932;48.616;9.270;2024-01-27T10:24:52;13.85;;;12.63;;
85523;SDS011;75932;48.616;9.270;2024-01-27T10:27:17;15.32;;;13.95;;
85523;SDS011;75932;48.616;9.270;2024-01-27T10:29:56;13.10;;;11.82;;
85523;SDS011;75932;48.616;9.270;2024-01-27T10:32:21;15.02;;;13.63;;
85523;SDS011;75932;48.616;9.270;2024-01-27T10:35:05;14.90;;;13.68;;
85523;SDS011;75932;48.616;9.270;2024-01-27T10:37:33;15.23;;;13.82;;
85523;SDS011;75932;48.616;9.270;2024-01-27T10:40:05;14.23;;;13.13;;
85523;SDS011;75932;48.616;9.270;2024-01-27T10:42:32;8.88;;;8.00;;
85523;SDS011;75932;48.616;9.270;2024-01-27T10:44:59;10.13;;;8.13;;
85523;SDS011;75932;48.616;9.270;2024-01-27T10:47:28;13.52;;;12.43;;
85523;SDS011;75932;48.616;9.270;2024-01-27T10:49:55;13.57;;;12.35;;
85523;SDS011;75932;48.616;9.270;2024-01-27T10:52:24;12.85;;;11.65;;
85523;SDS011;75932;48.616;9.270;2024-01-27T10:55:01;11.27;;;10.20;;
85523;SDS011;75932;48.616;9.270;2024-01-27T10:57:29;11.38;;;9.48;;
85523;SDS011;75932;48.616;9.270;2024-01-27T10:59:55;12.07;;;10.55;;
85523;SDS011;75932;48.616;9.270;2024-01-27T11:02:25;10.82;;;7.60;;
85523;SDS011;75932;48.616;9.270;2024-01-27T11:04:51;15.65;;;14.32;;
85523;SDS011;75932;48.616;9.270;2024-01-27T11:07:20;11.90;;;10.13;;
85523;SDS011;75932;48.616;9.270;2024-01-27T11:09:48;12.52;;;11.30;;
85523;SDS011;75932;48.616;9.270;2024-01-27T11:12:15;12.32;;;11.13;;
85523;SDS011;75932;48.616;9.270;2024-01-27T11:14:41;12.07;;;10.88;;
85523;SDS011;75932;48.616;9.270;2024-01-27T11:17:06;9.47;;;7.40;;
85523;SDS011;75932;48.616;9.270;2024-01-27T11:19:32;14.02;;;12.93;;
85523;SDS011;75932;48.616;9.270;2024-01-27T11:22:02;11.52;;;9.70;;
85523;SDS011;75932;48.616;9.270;2024-01-27T11:24:28;11.25;;;10.27;;
85523;SDS011;75932;48.616;9.270;2024-01-27T11:27:06;10.57;;;9.52;;
85523;SDS011;75932;48.616;9.270;2024-01-27T11:29:31;13.50;;;12.30;;
85523;SDS011;75932;48.616;9.270;2024-01-27T11:32:02;10.85;;;9.98;;
85523;SDS011;75932;48.616;9.270;2024-01-27T11:34:28;11.10;;;10.00;;
85523;SDS011;75932;48.616;9.270;2024-01-27T11:37:15;10.25;;;8.23;;
85523;SDS011;75932;48.616;9.270;2024-01-27T11:39:42;12.65;;;11.55;;
85523;SDS011;75932;48.616;9.270;2024-01-27T11:42:08;12.68;;;10.82;;
85523;SDS011;75932;48.616;9.270;2024-01-27T11:44:38;11.85;;;10.63;;
85523;SDS011;75932;48.616;9.270;2024-01-27T11:47:05;9.27;;;8.57;;
85523;SDS011;75932;48.616;9.270;2024-01-27T11:49:38;9.48;;;6.82;;
85523;SDS011;75932;48.616;9.270;2024-01-27T11:52:05;12.68;;;9.57;;
85523;SDS011;75932;48.616;9.270;2024-01-27T11:54:31;12.88;;;9.85;;
85523;SDS011;75932;48.616;9.270;2024-01-27T11:56:57;11.67;;;10.53;;
85523;SDS011;75932;48.616;9.270;2024-01-27T11:59:22;11.57;;;10.63;;
85523;SDS011;75932;48.616;9.270;2024-01-27T12:01:48;14.93;;;13.75;;
85523;SDS011;75932;48.616;9.270;2024-01-27T12:04:13;12.27;;;9.85;;
85523;SDS011;75932;48.616;9.270;2024-01-27T12:06:40;7.57;;;6.93;;
85523;SDS011;75932;48.616;9.270;2024-01-27T12:09:06;13.57;;;11.55;;
85523;SDS011;75932;48.616;9.270;2024-01-27T12:11:37;10.18;;;9.27;;
85523;SDS011;75932;48.616;9.270;2024-01-27T12:14:04;9.75;;;8.48;;
85523;SDS011;75932;48.616;9.270;2024-01-27T12:16:29;10.63;;;9.73;;
85523;SDS011;75932;48.616;9.270;2024-01-27T12:18:54;12.17;;;10.53;;
85523;SDS011;75932;48.616;9.270;2024-01-27T12:21:20;11.10;;;9.93;;
85523;SDS011;75932;48.616;9.270;2024-01-27T12:23:55;11.75;;;10.63;;
85523;SDS011;75932;48.616;9.270;2024-01-27T12:26:22;11.07;;;10.00;;
85523;SDS011;75932;48.616;9.270;2024-01-27T12:28:51;11.15;;;10.00;;
85523;SDS011;75932;48.616;9.270;2024-01-27T12:31:16;10.95;;;10.05;;
85523;SDS011;75932;48.616;9.270;2024-01-27T12:33:49;9.27;;;6.30;;
85523;SDS011;75932;48.616;9.270;2024-01-27T12:36:18;10.52;;;9.57;;
85523;SDS011;75932;48.616;9.270;2024-01-27T12:38:47;10.93;;;9.70;;
85523;SDS011;75932;48.616;9.270;2024-01-27T12:41:26;10.25;;;9.35;;
85523;SDS011;75932;48.616;9.270;2024-01-27T12:43:52;9.52;;;8.73;;
85523;SDS011;75932;48.616;9.270;2024-01-27T12:46:18;9.43;;;8.55;;
85523;SDS011;75932;48.616;9.270;2024-01-27T12:48:44;11.43;;;9.05;;
85523;SDS011;75932;48.616;9.270;2024-01-27T12:51:10;8.93;;;8.02;;
85523;SDS011;75932;48.616;9.270;2024-01-27T12:53:38;9.10;;;8.30;;
85523;SDS011;75932;48.616;9.270;2024-01-27T12:56:06;9.65;;;8.00;;
85523;SDS011;75932;48.616;9.270;2024-01-27T12:58:32;7.13;;;6.30;;
85523;SDS011;75932;48.616;9.270;2024-01-27T13:00:57;8.50;;;7.87;;
85523;SDS011;75932;48.616;9.270;2024-01-27T13:03:22;11.43;;;10.67;;
85523;SDS011;75932;48.616;9.270;2024-01-27T13:05:48;8.80;;;8.20;;
85523;SDS011;75932;48.616;9.270;2024-01-27T13:08:15;10.40;;;9.40;;
85523;SDS011;75932;48.616;9.270;2024-01-27T13:10:40;10.13;;;9.37;;
85523;SDS011;75932;48.616;9.270;2024-01-27T13:13:06;7.87;;;7.27;;
85523;SDS011;75932;48.616;9.270;2024-01-27T13:15:31;8.63;;;7.80;;
85523;SDS011;75932;48.616;9.270;2024-01-27T13:17:56;10.00;;;9.10;;
85523;SDS011;75932;48.616;9.270;2024-01-27T13:20:22;9.53;;;7.53;;
85523;SDS011;75932;48.616;9.270;2024-01-27T13:22:47;11.63;;;7.37;;
85523;SDS011;75932;48.616;9.270;2024-01-27T13:25:13;9.15;;;8.02;;
85523;SDS011;75932;48.616;9.270;2024-01-27T13:27:39;11.43;;;10.68;;
85523;SDS011;75932;48.616;9.270;2024-01-27T13:30:04;8.07;;;7.37;;
85523;SDS011;75932;48.616;9.270;2024-01-27T13:32:30;12.05;;;8.32;;
85523;SDS011;75932;48.616;9.270;2024-01-27T13:34:55;8.90;;;8.03;;
85523;SDS011;75932;48.616;9.270;2024-01-27T13:37:21;10.40;;;9.33;;
85523;SDS011;75932;48.616;9.270;2024-01-27T13:39:47;8.63;;;7.60;;
85523;SDS011;75932;48.616;9.270;2024-01-27T13:42:12;8.95;;;8.10;;
85523;SDS011;75932;48.616;9.270;2024-01-27T13:44:38;9.83;;;8.93;;
85523;SDS011;75932;48.616;9.270;2024-01-27T13:47:04;11.05;;;9.23;;
85523;SDS011;75932;48.616;9.270;2024-01-27T13:49:30;10.70;;;9.73;;
85523;SDS011;75932;48.616;9.270;2024-01-27T13:51:56;6.47;;;4.93;;
85523;SDS011;75932;48.616;9.270;2024-01-27T13:54:22;9.00;;;8.23;;
85523;SDS011;75932;48.616;9.270;2024-01-27T13:56:50;9.65;;;8.75;;
85523;SDS011;75932;48.616;9.270;2024-01-27T13:59:15;8.05;;;7.30;;
85523;SDS011;75932;48.616;9.270;2024-01-27T14:01:41;9.73;;;8.30;;
85523;SDS011;75932;48.616;9.270;2024-01-27T14:04:06;9.90;;;9.13;;
85523;SDS011;75932;48.616;9.270;2024-01-27T14:06:33;10.35;;;9.35;;
85523;SDS011;75932;48.616;9.270;2024-01-27T14:08:59;10.38;;;9.10;;
85523;SDS011;75932;48.616;9.270;2024-01-27T14:11:24;10.98;;;6.75;;
85523;SDS011;75932;48.616;9.270;2024-01-27T14:13:50;10.02;;;9.25;;
85523;SDS011;75932;48.616;9.270;2024-01-27T14:16:15;13.47;;;9.90;;
85523;SDS011;75932;48.616;9.270;2024-01-27T14:18:41;10.32;;;9.15;;
85523;SDS011;75932;48.616;9.270;2024-01-27T14:21:07;10.40;;;9.10;;
85523;SDS011;75932;48.616;9.270;2024-01-27T14:23:33;10.23;;;9.13;;